createdAt,value
2019-02-07T00:01:27.091Z,29.87
2019-02-07T00:03:54.599Z,27.70
2019-02-07T00:06:22.268Z,27.63
2019-02-07T00:08:49.928Z,27.37
2019-02-07T00:11:17.155Z,26.23
2019-02-07T00:13:44.501Z,26.57
2019-02-07T00:16:11.728Z,28.37
2019-02-07T00:18:39.461Z,28.67
2019-02-07T00:21:07.020Z,27.63
2019-02-07T00:23:34.247Z,28.33
2019-02-07T00:26:01.480Z,28.47
2019-02-07T00:28:28.760Z,27.47
2019-02-07T00:30:56.092Z,26.43
2019-02-07T00:33:23.322Z,29.00
2019-02-07T00:35:52.452Z,28.00
2019-02-07T00:38:19.680Z,29.73
2019-02-07T00:40:47.403Z,29.83
2019-02-07T00:43:14.631Z,30.33
2019-02-07T00:45:41.978Z,30.47
2019-02-07T00:48:09.203Z,30.37
2019-02-07T00:50:36.802Z,30.20
2019-02-07T00:53:04.778Z,28.77
2019-02-07T00:55:32.004Z,29.77
2019-02-07T00:57:59.223Z,29.80
2019-02-07T01:00:26.505Z,28.43
2019-02-07T01:02:53.934Z,27.07
2019-02-07T01:05:22.210Z,28.07
2019-02-07T01:07:50.267Z,28.13
2019-02-07T01:10:22.648Z,26.10
2019-02-07T01:12:49.882Z,26.07
2019-02-07T01:15:17.835Z,25.67
2019-02-07T01:17:45.168Z,26.70
2019-02-07T01:20:13.621Z,23.30
2019-02-07T01:22:41.160Z,23.77
2019-02-07T01:25:11.471Z,23.03
2019-02-07T01:27:38.708Z,23.83
2019-02-07T01:30:07.725Z,24.30
2019-02-07T01:32:35.085Z,24.37
2019-02-07T01:35:03.238Z,24.13
2019-02-07T01:37:33.619Z,23.23
2019-02-07T01:40:01.066Z,23.83
2019-02-07T01:42:28.695Z,23.97
2019-02-07T01:44:55.923Z,22.77
2019-02-07T01:47:23.241Z,24.60
2019-02-07T01:49:50.769Z,23.93
2019-02-07T01:52:18.207Z,23.20
2019-02-07T01:54:45.932Z,24.53
2019-02-07T01:57:13.159Z,25.13
2019-02-07T01:59:40.803Z,23.63
2019-02-07T02:02:08.071Z,23.33
2019-02-07T02:04:35.295Z,22.90
2019-02-07T02:07:02.554Z,22.63
2019-02-07T02:09:29.795Z,23.00
2019-02-07T02:11:57.053Z,23.73
2019-02-07T02:14:24.413Z,22.90
2019-02-07T02:16:51.778Z,21.17
2019-02-07T02:19:19.003Z,22.47
2019-02-07T02:21:46.261Z,21.00
2019-02-07T02:24:13.583Z,20.50
2019-02-07T02:26:40.847Z,21.37
2019-02-07T02:29:08.093Z,21.23
2019-02-07T02:31:35.442Z,22.00
2019-02-07T02:34:03.330Z,21.73
2019-02-07T02:36:30.891Z,21.70
2019-02-07T02:38:58.213Z,21.90
2019-02-07T02:41:25.570Z,20.83
2019-02-07T02:43:52.812Z,21.07
2019-02-07T02:46:20.099Z,21.87
2019-02-07T02:48:47.423Z,21.27
2019-02-07T02:51:14.688Z,21.60
2019-02-07T02:53:42.504Z,21.73
2019-02-07T02:56:10.098Z,23.63
2019-02-07T02:58:37.419Z,24.37
2019-02-07T03:01:27.079Z,22.33
2019-02-07T03:04:04.044Z,23.53
2019-02-07T03:06:49.432Z,24.03
2019-02-07T03:09:29.820Z,22.90
2019-02-07T03:12:05.136Z,24.93
2019-02-07T03:14:52.039Z,23.90
2019-02-07T03:17:48.386Z,23.97
2019-02-07T03:20:36.810Z,24.00
2019-02-07T03:23:29.596Z,23.03
2019-02-07T03:26:15.444Z,23.20
2019-02-07T03:29:14.472Z,23.30
2019-02-07T03:32:07.513Z,22.83
2019-02-07T03:34:50.696Z,23.00
2019-02-07T03:37:49.641Z,22.80
2019-02-07T03:40:39.811Z,24.67
2019-02-07T03:43:23.182Z,22.83
2019-02-07T03:46:10.429Z,22.70
2019-02-07T03:48:45.935Z,22.90
2019-02-07T03:51:51.279Z,23.07
2019-02-07T03:54:44.292Z,23.37
2019-02-07T03:57:39.986Z,24.10
2019-02-07T04:00:28.640Z,26.10
2019-02-07T04:03:27.456Z,26.90
2019-02-07T04:06:17.116Z,27.57
2019-02-07T04:09:03.864Z,25.50
2019-02-07T04:11:59.897Z,26.03
2019-02-07T04:14:45.376Z,26.77
2019-02-07T04:17:30.732Z,27.73
2019-02-07T04:20:32.488Z,30.40
2019-02-07T04:23:28.163Z,29.50
2019-02-07T04:26:20.955Z,30.37
2019-02-07T04:28:56.856Z,30.70
2019-02-07T04:31:29.800Z,24.63
2019-02-07T04:34:34.450Z,25.13
2019-02-07T04:37:20.253Z,26.80
2019-02-07T04:40:14.245Z,28.80
2019-02-07T04:42:52.106Z,29.07
2019-02-07T04:45:44.993Z,28.43
2019-02-07T04:48:30.481Z,32.33
2019-02-07T04:51:15.808Z,29.73
2019-02-07T04:54:02.868Z,32.83
2019-02-07T04:56:50.015Z,33.43
2019-02-07T04:59:35.383Z,32.20
2019-02-07T05:02:20.512Z,32.97
2019-02-07T05:04:58.386Z,33.57
2019-02-07T05:07:47.747Z,33.17
2019-02-07T05:10:37.994Z,31.90
2019-02-07T05:13:33.744Z,26.23
2019-02-07T05:16:23.659Z,32.13
2019-02-07T05:19:10.409Z,31.80
2019-02-07T05:22:05.739Z,33.17
2019-02-07T05:25:01.832Z,31.80
2019-02-07T05:27:41.030Z,33.33
2019-02-07T05:30:45.229Z,32.80
2019-02-07T05:33:27.448Z,30.70
2019-02-07T05:36:12.968Z,26.57
2019-02-07T05:38:58.205Z,23.87
2019-02-07T05:41:44.051Z,25.47
2019-02-07T05:44:28.779Z,24.07
2019-02-07T05:47:15.538Z,25.50
2019-02-07T05:50:00.832Z,29.63
2019-02-07T05:52:59.884Z,31.97
2019-02-07T05:55:45.583Z,31.00
2019-02-07T05:58:47.985Z,31.47
2019-02-07T06:01:33.311Z,31.57
2019-02-07T06:04:05.442Z,31.60
2019-02-07T06:07:04.135Z,32.87
2019-02-07T06:09:49.058Z,30.77
2019-02-07T06:12:42.019Z,30.57
2019-02-07T06:15:29.320Z,26.80
2019-02-07T06:18:05.033Z,27.60
2019-02-07T06:20:50.671Z,27.67
2019-02-07T06:23:43.020Z,28.43
2019-02-07T06:26:28.581Z,28.70
2019-02-07T06:29:17.935Z,29.00
2019-02-07T06:32:03.195Z,28.87
2019-02-07T06:34:52.463Z,27.00
2019-02-07T06:37:45.453Z,27.73
2019-02-07T06:40:38.517Z,28.27
2019-02-07T06:43:23.990Z,27.77
2019-02-07T06:46:01.660Z,27.40
2019-02-07T06:48:54.611Z,26.90
2019-02-07T06:51:38.319Z,30.57
2019-02-07T06:54:24.444Z,29.03
2019-02-07T06:57:16.747Z,27.10
2019-02-07T06:59:51.167Z,27.20
2019-02-07T07:02:30.632Z,27.60
2019-02-07T07:05:16.123Z,28.33
2019-02-07T07:07:54.640Z,28.40
2019-02-07T07:10:44.137Z,27.57
2019-02-07T07:13:30.173Z,26.77
2019-02-07T07:16:17.222Z,26.87
2019-02-07T07:19:06.595Z,26.40
2019-02-07T07:21:56.707Z,26.83
2019-02-07T07:24:42.139Z,26.40
2019-02-07T07:27:22.513Z,25.60
2019-02-07T07:30:09.592Z,25.37
2019-02-07T07:33:06.379Z,24.47
2019-02-07T07:35:41.571Z,22.80
2019-02-07T07:38:29.043Z,22.57
2019-02-07T07:41:21.838Z,22.23
2019-02-07T07:44:04.601Z,21.00
2019-02-07T07:46:51.320Z,21.67
2019-02-07T07:49:46.815Z,23.67
2019-02-07T07:52:33.848Z,22.00
2019-02-07T07:55:21.987Z,21.73
2019-02-07T07:58:09.037Z,21.23
2019-02-07T08:00:56.122Z,22.77
2019-02-07T08:03:54.973Z,22.83
2019-02-07T08:06:33.945Z,22.83
2019-02-07T08:09:16.347Z,22.40
2019-02-07T08:12:15.951Z,24.57
2019-02-07T08:14:55.351Z,22.73
2019-02-07T08:18:00.814Z,23.80
2019-02-07T08:20:50.217Z,23.00
2019-02-07T08:23:28.376Z,24.30
2019-02-07T08:26:14.211Z,24.63
2019-02-07T08:29:04.703Z,25.10
2019-02-07T08:31:40.764Z,26.80
2019-02-07T08:34:33.297Z,25.87
2019-02-07T08:37:17.133Z,28.80
2019-02-07T08:40:09.847Z,26.13
2019-02-07T08:42:49.809Z,27.07
2019-02-07T08:45:29.133Z,25.27
2019-02-07T08:48:14.332Z,27.47
2019-02-07T08:51:12.723Z,29.40
2019-02-07T08:54:00.223Z,27.03
2019-02-07T08:56:47.280Z,24.90
2019-02-07T08:59:34.100Z,29.57
2019-02-07T09:02:18.704Z,29.50
2019-02-07T09:05:12.273Z,30.27
2019-02-07T09:08:03.384Z,27.20
2019-02-07T09:10:48.813Z,29.30
2019-02-07T09:13:40.382Z,28.43
2019-02-07T09:16:36.274Z,27.60
2019-02-07T09:19:38.561Z,28.37
2019-02-07T09:22:24.359Z,26.40
2019-02-07T09:25:17.012Z,25.60
2019-02-07T09:28:02.537Z,25.30
2019-02-07T09:31:01.431Z,25.10
2019-02-07T09:34:06.097Z,23.73
2019-02-07T09:36:58.552Z,24.47
2019-02-07T09:39:48.076Z,26.20
2019-02-07T09:42:44.004Z,25.00
2019-02-07T09:45:44.492Z,24.23
2019-02-07T09:48:29.816Z,23.67
2019-02-07T09:51:22.263Z,24.23
2019-02-07T09:54:08.400Z,26.37
2019-02-07T09:56:52.560Z,26.17
2019-02-07T09:59:37.769Z,25.00
2019-02-07T10:02:17.559Z,24.87
2019-02-07T10:05:04.433Z,27.20
2019-02-07T10:07:54.567Z,25.63
2019-02-07T10:10:53.837Z,24.70
2019-02-07T10:13:46.496Z,24.67
2019-02-07T10:16:39.616Z,23.23
2019-02-07T10:19:26.354Z,23.47
2019-02-07T10:22:11.803Z,24.27
2019-02-07T10:24:58.543Z,22.87
2019-02-07T10:27:43.940Z,23.03
2019-02-07T10:30:36.637Z,23.30
2019-02-07T10:33:25.037Z,24.03
2019-02-07T10:36:03.917Z,24.43
2019-02-07T10:38:56.605Z,24.40
2019-02-07T10:41:43.489Z,22.67
2019-02-07T10:44:33.478Z,23.07
2019-02-07T10:47:30.541Z,24.57
2019-02-07T10:50:29.637Z,23.23
2019-02-07T10:53:19.739Z,24.70
2019-02-07T10:56:17.372Z,24.27
2019-02-07T10:59:00.356Z,25.27
2019-02-07T11:01:47.680Z,24.70
2019-02-07T11:04:33.094Z,25.30
2019-02-07T11:07:29.349Z,25.67
2019-02-07T11:10:14.121Z,23.40
2019-02-07T11:13:14.986Z,25.47
2019-02-07T11:16:00.247Z,24.93
2019-02-07T11:19:04.965Z,28.90
2019-02-07T11:21:51.732Z,29.10
2019-02-07T11:24:41.803Z,27.50
2019-02-07T11:27:28.579Z,26.80
2019-02-07T11:30:17.831Z,27.40
2019-02-07T11:32:51.263Z,26.83
2019-02-07T11:35:36.396Z,26.07
2019-02-07T11:38:26.452Z,26.23
2019-02-07T11:41:16.049Z,28.73
2019-02-07T11:44:01.439Z,29.23
2019-02-07T11:47:04.957Z,28.53
2019-02-07T11:49:41.512Z,28.57
2019-02-07T11:52:37.602Z,28.43
2019-02-07T11:55:17.600Z,31.53
2019-02-07T11:58:10.672Z,28.97
2019-02-07T12:01:06.600Z,28.17
2019-02-07T12:03:52.155Z,27.93
2019-02-07T12:06:38.999Z,26.80
2019-02-07T12:09:30.716Z,27.77
2019-02-07T12:12:16.145Z,28.33
2019-02-07T12:15:13.683Z,26.13
2019-02-07T12:17:59.075Z,27.73
2019-02-07T12:20:48.679Z,27.93
2019-02-07T12:23:26.567Z,29.30
2019-02-07T12:26:08.883Z,29.17
2019-02-07T12:28:55.443Z,28.73
2019-02-07T12:31:44.593Z,28.93
2019-02-07T12:34:46.499Z,30.90
2019-02-07T12:37:31.883Z,28.50
2019-02-07T12:40:17.165Z,28.83
2019-02-07T12:43:02.420Z,29.00
2019-02-07T12:45:49.228Z,28.20
2019-02-07T12:48:41.634Z,29.67
2019-02-07T12:51:31.178Z,27.87
2019-02-07T12:54:26.902Z,28.07
2019-02-07T12:57:22.932Z,29.90
2019-02-07T13:00:12.644Z,30.13
2019-02-07T13:03:07.956Z,33.17
2019-02-07T13:05:53.514Z,27.43
2019-02-07T13:08:40.311Z,29.67
2019-02-07T13:11:30.088Z,29.77
2019-02-07T13:14:14.301Z,26.30
2019-02-07T13:17:00.074Z,27.70
2019-02-07T13:19:40.737Z,25.00
2019-02-07T13:22:31.428Z,24.57
2019-02-07T13:25:07.159Z,24.27
2019-02-07T13:27:52.665Z,25.30
2019-02-07T13:30:42.094Z,23.17
2019-02-07T13:33:38.035Z,24.90
2019-02-07T13:36:24.779Z,22.83
2019-02-07T13:39:06.138Z,24.07
2019-02-07T13:41:43.177Z,22.07
2019-02-07T13:44:45.283Z,22.93
2019-02-07T13:47:30.827Z,23.30
2019-02-07T13:50:08.398Z,22.10
2019-02-07T13:53:03.987Z,20.40
2019-02-07T13:55:50.727Z,19.90
2019-02-07T13:58:36.449Z,20.27
2019-02-07T14:01:22.579Z,19.50
2019-02-07T14:04:08.189Z,18.70
2019-02-07T14:07:04.446Z,19.37
2019-02-07T14:09:39.486Z,19.90
2019-02-07T14:12:25.493Z,19.90
2019-02-07T14:15:20.925Z,19.43
2019-02-07T14:18:26.040Z,20.37
2019-02-07T14:21:22.073Z,19.10
2019-02-07T14:24:07.605Z,20.47
2019-02-07T14:26:52.807Z,20.77
2019-02-07T14:29:42.127Z,20.43
2019-02-07T14:32:16.378Z,20.63
2019-02-07T14:35:02.184Z,20.80
2019-02-07T14:37:58.092Z,20.47
2019-02-07T14:40:37.735Z,19.33
2019-02-07T14:43:26.136Z,20.53
2019-02-07T14:46:11.357Z,20.37
2019-02-07T14:48:38.646Z,20.60
2019-02-07T14:51:06.311Z,20.57
2019-02-07T14:53:34.128Z,20.77
2019-02-07T14:56:01.456Z,19.63
2019-02-07T14:58:28.863Z,20.17
2019-02-07T15:00:56.082Z,20.43
2019-02-07T15:03:24.143Z,20.97
2019-02-07T15:05:51.481Z,19.57
2019-02-07T15:08:18.896Z,20.70
2019-02-07T15:10:46.128Z,18.97
2019-02-07T15:13:13.347Z,19.67
2019-02-07T15:15:40.571Z,18.37
2019-02-07T15:18:08.032Z,18.00
2019-02-07T15:20:35.695Z,17.13
2019-02-07T15:23:02.942Z,18.53
2019-02-07T15:25:30.288Z,16.50
2019-02-07T15:27:57.955Z,18.33
2019-02-07T15:30:25.500Z,17.47
2019-02-07T15:32:52.733Z,18.50
2019-02-07T15:35:23.317Z,17.17
2019-02-07T15:37:50.561Z,17.47
2019-02-07T15:40:20.621Z,17.67
2019-02-07T15:42:48.151Z,16.57
2019-02-07T15:45:15.811Z,16.93
2019-02-07T15:47:43.131Z,16.00
2019-02-07T15:50:22.806Z,15.80
2019-02-07T15:52:52.123Z,15.73
2019-02-07T15:55:20.186Z,16.87
2019-02-07T15:57:47.704Z,16.43
2019-02-07T16:00:45.324Z,14.80
2019-02-07T16:03:18.408Z,15.30
2019-02-07T16:05:45.776Z,16.17
2019-02-07T16:08:12.998Z,15.37
2019-02-07T16:10:40.371Z,16.27
2019-02-07T16:13:07.592Z,15.53
2019-02-07T16:15:34.860Z,15.50
2019-02-07T16:18:02.105Z,15.93
2019-02-07T16:20:29.772Z,16.00
2019-02-07T16:22:59.012Z,15.20
2019-02-07T16:25:26.512Z,15.80
2019-02-07T16:27:53.823Z,17.00
2019-02-07T16:30:21.952Z,17.60
2019-02-07T16:32:49.369Z,15.50
2019-02-07T16:35:16.787Z,14.47
2019-02-07T16:37:44.096Z,16.97
2019-02-07T16:40:12.284Z,15.40
2019-02-07T16:42:39.509Z,16.87
2019-02-07T16:45:10.043Z,17.97
2019-02-07T16:47:37.265Z,17.70
2019-02-07T16:50:06.503Z,17.63
2019-02-07T16:52:34.129Z,15.50
2019-02-07T16:55:01.443Z,16.87
2019-02-07T16:57:28.983Z,15.83
2019-02-07T16:59:56.261Z,15.70
2019-02-07T17:02:24.040Z,16.40
2019-02-07T17:04:51.333Z,15.87
2019-02-07T17:07:18.657Z,17.70
2019-02-07T17:09:45.871Z,16.77
2019-02-07T17:12:13.581Z,17.00
2019-02-07T17:14:40.804Z,15.87
2019-02-07T17:17:08.133Z,16.20
2019-02-07T17:19:35.348Z,16.20
2019-02-07T17:22:02.641Z,15.70
2019-02-07T17:24:29.942Z,16.77
2019-02-07T17:26:57.296Z,16.07
2019-02-07T17:29:24.605Z,17.00
2019-02-07T17:31:52.279Z,14.60
2019-02-07T17:34:19.508Z,16.17
2019-02-07T17:36:47.863Z,16.67
2019-02-07T17:39:15.246Z,16.20
2019-02-07T17:41:43.001Z,15.67
2019-02-07T17:44:10.418Z,15.77
2019-02-07T17:46:38.221Z,16.83
2019-02-07T17:49:05.632Z,28.00
2019-02-07T17:51:32.920Z,30.53
2019-02-07T17:54:00.837Z,25.37
2019-02-07T17:56:28.211Z,22.00
2019-02-07T17:58:55.455Z,24.30
2019-02-07T18:01:22.886Z,20.00
2019-02-07T18:03:50.611Z,21.20
2019-02-07T18:06:18.408Z,19.67
2019-02-07T18:08:46.714Z,20.53
2019-02-07T18:11:14.102Z,22.10
2019-02-07T18:13:41.331Z,21.57
2019-02-07T18:16:08.718Z,17.60
2019-02-07T18:18:36.264Z,19.33
2019-02-07T18:21:04.129Z,18.33
2019-02-07T18:23:31.351Z,22.03
2019-02-07T18:25:58.636Z,22.53
2019-02-07T18:28:25.911Z,21.77
2019-02-07T18:30:53.305Z,21.13
2019-02-07T18:33:20.640Z,21.93
2019-02-07T18:35:48.018Z,22.43
2019-02-07T18:38:15.260Z,22.00
2019-02-07T18:40:42.990Z,21.43
2019-02-07T18:43:10.311Z,23.87
2019-02-07T18:45:37.739Z,20.27
2019-02-07T18:48:05.463Z,18.50
2019-02-07T18:50:34.792Z,18.67
2019-02-07T18:53:02.020Z,18.90
2019-02-07T18:55:29.354Z,17.57
2019-02-07T18:57:56.992Z,19.00
2019-02-07T19:00:26.569Z,18.93
2019-02-07T19:02:53.988Z,15.90
2019-02-07T19:05:21.892Z,15.80
2019-02-07T19:07:49.120Z,18.83
2019-02-07T19:10:18.523Z,17.83
2019-02-07T19:12:45.973Z,16.97
2019-02-07T19:15:16.428Z,17.60
2019-02-07T19:17:43.754Z,19.60
2019-02-07T19:20:13.587Z,19.60
2019-02-07T19:22:40.967Z,17.97
2019-02-07T19:25:08.755Z,18.20
2019-02-07T19:27:36.854Z,17.47
2019-02-07T19:30:09.699Z,18.83
2019-02-07T19:32:37.311Z,16.93
2019-02-07T19:35:05.323Z,16.87
2019-02-07T19:37:32.685Z,18.77
2019-02-07T19:40:00.104Z,20.37
2019-02-07T19:42:27.481Z,22.73
2019-02-07T19:44:55.175Z,20.30
2019-02-07T19:47:22.626Z,18.50
2019-02-07T19:49:50.257Z,17.67
2019-02-07T19:52:17.541Z,18.30
2019-02-07T19:54:44.776Z,18.43
2019-02-07T19:57:12.155Z,17.63
2019-02-07T19:59:39.383Z,19.33
2019-02-07T20:02:07.051Z,17.93
2019-02-07T20:04:34.367Z,17.53
2019-02-07T20:07:01.643Z,17.00
2019-02-07T20:09:29.382Z,16.20
2019-02-07T20:11:57.253Z,17.60
2019-02-07T20:14:24.635Z,16.53
2019-02-07T20:16:52.016Z,15.17
2019-02-07T20:19:19.347Z,16.77
2019-02-07T20:21:48.057Z,17.60
2019-02-07T20:24:15.723Z,16.03
2019-02-07T20:26:43.508Z,16.50
2019-02-07T20:29:10.835Z,16.13
2019-02-07T20:31:38.219Z,13.93
2019-02-07T20:34:06.151Z,13.80
2019-02-07T20:36:33.483Z,13.20
2019-02-07T20:39:01.025Z,12.73
2019-02-07T20:41:28.360Z,14.37
2019-02-07T20:43:55.679Z,12.50
2019-02-07T20:46:23.003Z,13.50
2019-02-07T20:48:50.975Z,13.30
2019-02-07T20:51:19.151Z,12.07
2019-02-07T20:53:46.483Z,9.87
2019-02-07T20:56:13.716Z,10.37
2019-02-07T20:58:41.099Z,10.00
2019-02-07T21:01:08.451Z,9.40
2019-02-07T21:03:36.539Z,10.77
2019-02-07T21:06:04.068Z,9.20
2019-02-07T21:08:31.704Z,9.43
2019-02-07T21:10:58.948Z,9.33
2019-02-07T21:13:26.227Z,7.80
2019-02-07T21:15:53.572Z,8.67
2019-02-07T21:18:21.175Z,8.60
2019-02-07T21:20:48.839Z,7.90
2019-02-07T21:23:16.181Z,7.97
2019-02-07T21:25:46.084Z,8.10
2019-02-07T21:28:13.730Z,8.67
2019-02-07T21:30:41.059Z,7.37
2019-02-07T21:33:08.403Z,7.67
2019-02-07T21:35:36.031Z,7.17
2019-02-07T21:38:04.567Z,7.00
2019-02-07T21:40:31.995Z,6.73
2019-02-07T21:43:00.172Z,6.30
2019-02-07T21:45:27.996Z,6.60
2019-02-07T21:47:56.005Z,6.77
2019-02-07T21:50:24.415Z,6.57
2019-02-07T21:52:52.033Z,6.90
2019-02-07T21:55:20.639Z,6.30
2019-02-07T21:57:47.915Z,5.80
2019-02-07T22:00:20.923Z,6.33
2019-02-07T22:02:48.808Z,6.60
2019-02-07T22:05:16.132Z,7.13
2019-02-07T22:07:43.496Z,6.80
2019-02-07T22:10:11.960Z,7.00
2019-02-07T22:12:39.367Z,6.33
2019-02-07T22:15:09.404Z,6.53
2019-02-07T22:17:36.664Z,7.50
2019-02-07T22:20:07.615Z,7.10
2019-02-07T22:22:35.240Z,7.40
2019-02-07T22:25:03.058Z,8.17
2019-02-07T22:27:30.368Z,7.67
2019-02-07T22:29:57.683Z,8.00
2019-02-07T22:32:24.913Z,6.63
2019-02-07T22:34:52.260Z,7.47
2019-02-07T22:37:20.013Z,7.77
2019-02-07T22:39:47.341Z,7.87
2019-02-07T22:42:14.667Z,8.40
2019-02-07T22:44:41.904Z,8.50
2019-02-07T22:47:09.135Z,8.37
2019-02-07T22:49:36.380Z,8.80
2019-02-07T22:52:04.215Z,8.30
2019-02-07T22:54:31.455Z,8.87
2019-02-07T22:56:58.993Z,8.73
2019-02-07T22:59:26.326Z,9.07
2019-02-07T23:01:55.291Z,8.10
2019-02-07T23:04:23.579Z,9.63
2019-02-07T23:06:50.906Z,8.20
2019-02-07T23:09:18.635Z,7.97
2019-02-07T23:11:45.869Z,8.23
2019-02-07T23:14:13.606Z,7.90
2019-02-07T23:16:40.932Z,8.60
2019-02-07T23:19:08.175Z,8.07
2019-02-07T23:21:35.483Z,8.07
2019-02-07T23:24:03.812Z,7.63
2019-02-07T23:26:31.032Z,7.33
2019-02-07T23:28:58.261Z,8.10
2019-02-07T23:31:26.067Z,7.90
2019-02-07T23:33:53.329Z,8.13
2019-02-07T23:36:20.691Z,7.53
2019-02-07T23:38:48.263Z,8.60
2019-02-07T23:41:15.483Z,7.47
2019-02-07T23:43:46.153Z,8.00
2019-02-07T23:46:11.857Z,7.03
2019-02-07T23:48:39.308Z,7.47
2019-02-07T23:51:06.601Z,7.77
2019-02-07T23:53:34.043Z,7.90
2019-02-07T23:56:01.376Z,6.87
2019-02-07T23:58:28.695Z,7.83
